sensor_id;sensor_type;location;lat;lon;timestamp;P1;durP1;ratioP1;P2;durP2;ratioP2
66487;SDS011;53304;54.550;18.526;2024-01-30T00:00:15;15.80;;;8.20;;
66487;SDS011;53304;54.550;18.526;2024-01-30T00:02:41;13.50;;;8.30;;
66487;SDS011;53304;54.550;18.526;2024-01-30T00:05:10;15.77;;;8.60;;
66487;SDS011;53304;54.550;18.526;2024-01-30T00:07:36;15.75;;;8.40;;
66487;SDS011;53304;54.550;18.526;2024-01-30T00:10:01;14.90;;;8.15;;
66487;SDS011;53304;54.550;18.526;2024-01-30T00:12:27;15.93;;;8.55;;
66487;SDS011;53304;54.550;18.526;2024-01-30T00:14:52;15.65;;;8.40;;
66487;SDS011;53304;54.550;18.526;2024-01-30T00:17:19;15.07;;;8.57;;
66487;SDS011;53304;54.550;18.526;2024-01-30T00:19:47;16.38;;;8.55;;
66487;SDS011;53304;54.550;18.526;2024-01-30T00:22:15;15.55;;;8.60;;
66487;SDS011;53304;54.550;18.526;2024-01-30T00:24:43;19.25;;;9.10;;
66487;SDS011;53304;54.550;18.526;2024-01-30T00:27:10;16.98;;;8.40;;
66487;SDS011;53304;54.550;18.526;2024-01-30T00:29:38;15.55;;;8.65;;
66487;SDS011;53304;54.550;18.526;2024-01-30T00:32:06;16.08;;;8.25;;
66487;SDS011;53304;54.550;18.526;2024-01-30T00:34:34;14.60;;;8.15;;
66487;SDS011;53304;54.550;18.526;2024-01-30T00:36:59;17.80;;;9.15;;
66487;SDS011;53304;54.550;18.526;2024-01-30T00:39:27;17.33;;;8.77;;
66487;SDS011;53304;54.550;18.526;2024-01-30T00:41:55;16.20;;;9.10;;
66487;SDS011;53304;54.550;18.526;2024-01-30T00:44:21;15.73;;;8.93;;
66487;SDS011;53304;54.550;18.526;2024-01-30T00:46:46;22.98;;;9.38;;
66487;SDS011;53304;54.550;18.526;2024-01-30T00:49:16;18.13;;;9.55;;
66487;SDS011;53304;54.550;18.526;2024-01-30T00:51:42;14.60;;;9.15;;
66487;SDS011;53304;54.550;18.526;2024-01-30T00:54:07;16.10;;;9.75;;
66487;SDS011;53304;54.550;18.526;2024-01-30T00:56:37;15.93;;;8.80;;
66487;SDS011;53304;54.550;18.526;2024-01-30T00:59:05;17.00;;;8.65;;
66487;SDS011;53304;54.550;18.526;2024-01-30T01:01:30;16.85;;;9.25;;
66487;SDS011;53304;54.550;18.526;2024-01-30T01:03:58;16.05;;;8.98;;
66487;SDS011;53304;54.550;18.526;2024-01-30T01:06:27;18.30;;;9.55;;
66487;SDS011;53304;54.550;18.526;2024-01-30T01:08:55;16.15;;;9.35;;
66487;SDS011;53304;54.550;18.526;2024-01-30T01:11:20;18.25;;;9.40;;
66487;SDS011;53304;54.550;18.526;2024-01-30T01:13:48;20.77;;;10.32;;
66487;SDS011;53304;54.550;18.526;2024-01-30T01:16:13;14.60;;;8.98;;
66487;SDS011;53304;54.550;18.526;2024-01-30T01:18:41;17.23;;;8.90;;
66487;SDS011;53304;54.550;18.526;2024-01-30T01:21:06;17.08;;;9.50;;
66487;SDS011;53304;54.550;18.526;2024-01-30T01:23:32;15.40;;;9.30;;
66487;SDS011;53304;54.550;18.526;2024-01-30T01:26:02;17.77;;;9.65;;
66487;SDS011;53304;54.550;18.526;2024-01-30T01:28:28;15.50;;;9.50;;
66487;SDS011;53304;54.550;18.526;2024-01-30T01:30:55;18.25;;;9.75;;
66487;SDS011;53304;54.550;18.526;2024-01-30T01:33:24;19.05;;;10.52;;
66487;SDS011;53304;54.550;18.526;2024-01-30T01:35:49;17.75;;;9.57;;
66487;SDS011;53304;54.550;18.526;2024-01-30T01:38:15;15.98;;;9.60;;
66487;SDS011;53304;54.550;18.526;2024-01-30T01:40:40;16.60;;;9.48;;
66487;SDS011;53304;54.550;18.526;2024-01-30T01:43:06;15.75;;;9.18;;
66487;SDS011;53304;54.550;18.526;2024-01-30T01:45:34;17.25;;;9.45;;
66487;SDS011;53304;54.550;18.526;2024-01-30T01:48:05;14.85;;;9.45;;
66487;SDS011;53304;54.550;18.526;2024-01-30T01:50:30;15.15;;;9.07;;
66487;SDS011;53304;54.550;18.526;2024-01-30T01:52:58;16.58;;;9.23;;
66487;SDS011;53304;54.550;18.526;2024-01-30T01:55:24;17.35;;;9.30;;
66487;SDS011;53304;54.550;18.526;2024-01-30T01:57:54;15.05;;;8.75;;
66487;SDS011;53304;54.550;18.526;2024-01-30T02:03:31;16.20;;;8.90;;
66487;SDS011;53304;54.550;18.526;2024-01-30T02:05:57;15.27;;;8.73;;
66487;SDS011;53304;54.550;18.526;2024-01-30T02:08:23;15.55;;;9.00;;
66487;SDS011;53304;54.550;18.526;2024-01-30T02:10:49;14.32;;;8.80;;
66487;SDS011;53304;54.550;18.526;2024-01-30T02:13:14;15.63;;;9.60;;
66487;SDS011;53304;54.550;18.526;2024-01-30T02:15:42;17.83;;;9.07;;
66487;SDS011;53304;54.550;18.526;2024-01-30T02:18:07;15.45;;;8.98;;
66487;SDS011;53304;54.550;18.526;2024-01-30T02:20:37;16.27;;;9.10;;
66487;SDS011;53304;54.550;18.526;2024-01-30T02:23:03;17.05;;;9.88;;
66487;SDS011;53304;54.550;18.526;2024-01-30T02:25:32;17.55;;;9.60;;
66487;SDS011;53304;54.550;18.526;2024-01-30T02:28:09;18.55;;;9.65;;
66487;SDS011;53304;54.550;18.526;2024-01-30T02:30:40;13.18;;;8.73;;
66487;SDS011;53304;54.550;18.526;2024-01-30T02:33:11;16.70;;;9.82;;
66487;SDS011;53304;54.550;18.526;2024-01-30T02:35:39;14.30;;;8.55;;
66487;SDS011;53304;54.550;18.526;2024-01-30T02:38:05;16.40;;;9.60;;
66487;SDS011;53304;54.550;18.526;2024-01-30T02:40:32;16.58;;;9.43;;
66487;SDS011;53304;54.550;18.526;2024-01-30T02:42:58;16.42;;;9.25;;
66487;SDS011;53304;54.550;18.526;2024-01-30T02:45:30;15.38;;;9.02;;
66487;SDS011;53304;54.550;18.526;2024-01-30T02:48:00;18.75;;;9.65;;
66487;SDS011;53304;54.550;18.526;2024-01-30T02:50:28;14.68;;;9.35;;
66487;SDS011;53304;54.550;18.526;2024-01-30T02:52:58;15.73;;;8.90;;
66487;SDS011;53304;54.550;18.526;2024-01-30T02:55:28;15.32;;;9.05;;
66487;SDS011;53304;54.550;18.526;2024-01-30T02:57:56;15.38;;;8.70;;
66487;SDS011;53304;54.550;18.526;2024-01-30T03:00:29;16.80;;;9.18;;
66487;SDS011;53304;54.550;18.526;2024-01-30T03:02:59;16.15;;;9.48;;
66487;SDS011;53304;54.550;18.526;2024-01-30T03:05:26;14.25;;;8.77;;
66487;SDS011;53304;54.550;18.526;2024-01-30T03:07:52;15.63;;;8.88;;
66487;SDS011;53304;54.550;18.526;2024-01-30T03:10:20;17.10;;;8.98;;
66487;SDS011;53304;54.550;18.526;2024-01-30T03:12:47;15.77;;;9.23;;
66487;SDS011;53304;54.550;18.526;2024-01-30T06:57:10;16.92;;;8.30;;
66487;SDS011;53304;54.550;18.526;2024-01-30T06:59:37;14.65;;;8.32;;
66487;SDS011;53304;54.550;18.526;2024-01-30T07:02:08;14.75;;;8.50;;
66487;SDS011;53304;54.550;18.526;2024-01-30T07:04:34;16.38;;;9.20;;
66487;SDS011;53304;54.550;18.526;2024-01-30T07:07:06;15.70;;;8.77;;
66487;SDS011;53304;54.550;18.526;2024-01-30T07:09:36;15.07;;;8.50;;
66487;SDS011;53304;54.550;18.526;2024-01-30T07:12:07;14.30;;;8.35;;
66487;SDS011;53304;54.550;18.526;2024-01-30T07:14:33;15.20;;;8.95;;
66487;SDS011;53304;54.550;18.526;2024-01-30T07:17:01;15.20;;;9.10;;
66487;SDS011;53304;54.550;18.526;2024-01-30T07:19:29;12.95;;;8.55;;
66487;SDS011;53304;54.550;18.526;2024-01-30T07:21:57;13.82;;;8.48;;
66487;SDS011;53304;54.550;18.526;2024-01-30T07:24:24;15.25;;;8.40;;
66487;SDS011;53304;54.550;18.526;2024-01-30T07:26:55;14.13;;;8.65;;
66487;SDS011;53304;54.550;18.526;2024-01-30T07:29:22;14.48;;;8.40;;
66487;SDS011;53304;54.550;18.526;2024-01-30T07:31:48;14.82;;;8.50;;
66487;SDS011;53304;54.550;18.526;2024-01-30T07:34:13;14.95;;;8.18;;
66487;SDS011;53304;54.550;18.526;2024-01-30T07:36:41;14.38;;;8.65;;
66487;SDS011;53304;54.550;18.526;2024-01-30T07:39:09;14.40;;;8.82;;
66487;SDS011;53304;54.550;18.526;2024-01-30T07:41:37;13.65;;;8.27;;
66487;SDS011;53304;54.550;18.526;2024-01-30T07:44:05;12.52;;;8.07;;
66487;SDS011;53304;54.550;18.526;2024-01-30T07:46:33;15.82;;;8.40;;
66487;SDS011;53304;54.550;18.526;2024-01-30T07:48:58;14.05;;;8.90;;
66487;SDS011;53304;54.550;18.526;2024-01-30T07:51:25;14.90;;;8.70;;
66487;SDS011;53304;54.550;18.526;2024-01-30T07:53:50;17.60;;;9.15;;
66487;SDS011;53304;54.550;18.526;2024-01-30T07:56:18;12.23;;;7.55;;
66487;SDS011;53304;54.550;18.526;2024-01-30T07:58:51;15.38;;;8.80;;
66487;SDS011;53304;54.550;18.526;2024-01-30T08:01:16;13.30;;;7.75;;
66487;SDS011;53304;54.550;18.526;2024-01-30T08:03:42;12.63;;;7.95;;
66487;SDS011;53304;54.550;18.526;2024-01-30T08:06:09;16.00;;;8.57;;
66487;SDS011;53304;54.550;18.526;2024-01-30T08:08:37;14.65;;;7.93;;
66487;SDS011;53304;54.550;18.526;2024-01-30T08:11:03;16.17;;;8.70;;
66487;SDS011;53304;54.550;18.526;2024-01-30T08:13:28;14.10;;;8.20;;
66487;SDS011;53304;54.550;18.526;2024-01-30T08:15:53;14.10;;;8.55;;
66487;SDS011;53304;54.550;18.526;2024-01-30T08:18:19;12.55;;;7.93;;
66487;SDS011;53304;54.550;18.526;2024-01-30T08:20:44;13.45;;;7.93;;
66487;SDS011;53304;54.550;18.526;2024-01-30T08:23:10;14.25;;;7.88;;
66487;SDS011;53304;54.550;18.526;2024-01-30T08:25:35;13.70;;;8.20;;
66487;SDS011;53304;54.550;18.526;2024-01-30T08:28:03;16.25;;;8.27;;
66487;SDS011;53304;54.550;18.526;2024-01-30T08:30:31;16.55;;;8.40;;
66487;SDS011;53304;54.550;18.526;2024-01-30T08:33:02;27.63;;;11.25;;
66487;SDS011;53304;54.550;18.526;2024-01-30T08:35:27;31.83;;;11.73;;
66487;SDS011;53304;54.550;18.526;2024-01-30T08:37:53;26.48;;;11.23;;
66487;SDS011;53304;54.550;18.526;2024-01-30T08:40:19;24.20;;;10.38;;
66487;SDS011;53304;54.550;18.526;2024-01-30T08:42:47;23.48;;;10.80;;
66487;SDS011;53304;54.550;18.526;2024-01-30T08:45:15;29.02;;;10.82;;
66487;SDS011;53304;54.550;18.526;2024-01-30T08:47:45;29.55;;;11.13;;
66487;SDS011;53304;54.550;18.526;2024-01-30T08:50:13;27.05;;;11.95;;
66487;SDS011;53304;54.550;18.526;2024-01-30T08:52:39;31.88;;;12.23;;
66487;SDS011;53304;54.550;18.526;2024-01-30T08:55:07;27.42;;;11.70;;
66487;SDS011;53304;54.550;18.526;2024-01-30T08:57:37;34.15;;;12.40;;
66487;SDS011;53304;54.550;18.526;2024-01-30T09:00:03;38.67;;;13.85;;
66487;SDS011;53304;54.550;18.526;2024-01-30T09:02:34;30.90;;;12.93;;
66487;SDS011;53304;54.550;18.526;2024-01-30T09:05:00;28.83;;;13.32;;
66487;SDS011;53304;54.550;18.526;2024-01-30T09:07:27;28.25;;;12.77;;
66487;SDS011;53304;54.550;18.526;2024-01-30T09:09:55;26.60;;;12.98;;
66487;SDS011;53304;54.550;18.526;2024-01-30T09:12:23;25.10;;;13.27;;
66487;SDS011;53304;54.550;18.526;2024-01-30T09:14:48;29.88;;;13.63;;
66487;SDS011;53304;54.550;18.526;2024-01-30T09:17:13;29.13;;;13.73;;
66487;SDS011;53304;54.550;18.526;2024-01-30T09:19:42;27.83;;;13.98;;
66487;SDS011;53304;54.550;18.526;2024-01-30T09:22:07;25.17;;;12.90;;
66487;SDS011;53304;54.550;18.526;2024-01-30T09:24:32;24.65;;;13.43;;
66487;SDS011;53304;54.550;18.526;2024-01-30T09:27:01;27.05;;;13.55;;
66487;SDS011;53304;54.550;18.526;2024-01-30T09:29:29;24.42;;;13.93;;
66487;SDS011;53304;54.550;18.526;2024-01-30T09:31:54;28.60;;;13.70;;
66487;SDS011;53304;54.550;18.526;2024-01-30T09:34:19;25.38;;;13.85;;
66487;SDS011;53304;54.550;18.526;2024-01-30T09:36:48;22.92;;;12.70;;
66487;SDS011;53304;54.550;18.526;2024-01-30T09:39:15;23.30;;;12.65;;
66487;SDS011;53304;54.550;18.526;2024-01-30T09:44:46;24.05;;;11.45;;
66487;SDS011;53304;54.550;18.526;2024-01-30T09:47:14;25.40;;;12.43;;
66487;SDS011;53304;54.550;18.526;2024-01-30T09:49:44;29.83;;;12.55;;
66487;SDS011;53304;54.550;18.526;2024-01-30T09:52:09;23.70;;;12.02;;
66487;SDS011;53304;54.550;18.526;2024-01-30T09:54:36;27.17;;;11.95;;
66487;SDS011;53304;54.550;18.526;2024-01-30T09:57:01;26.50;;;11.48;;
66487;SDS011;53304;54.550;18.526;2024-01-30T09:59:27;24.70;;;11.30;;
66487;SDS011;53304;54.550;18.526;2024-01-30T10:01:54;24.40;;;12.02;;
66487;SDS011;53304;54.550;18.526;2024-01-30T10:04:23;23.10;;;10.70;;
66487;SDS011;53304;54.550;18.526;2024-01-30T10:06:48;22.60;;;11.23;;
66487;SDS011;53304;54.550;18.526;2024-01-30T10:09:19;20.75;;;10.45;;
66487;SDS011;53304;54.550;18.526;2024-01-30T10:11:48;19.20;;;10.32;;
66487;SDS011;53304;54.550;18.526;2024-01-30T10:14:16;22.63;;;10.32;;
66487;SDS011;53304;54.550;18.526;2024-01-30T10:16:41;20.13;;;10.38;;
66487;SDS011;53304;54.550;18.526;2024-01-30T10:19:09;19.67;;;10.35;;
66487;SDS011;53304;54.550;18.526;2024-01-30T10:21:34;22.50;;;10.68;;
66487;SDS011;53304;54.550;18.526;2024-01-30T10:24:00;23.00;;;10.73;;
66487;SDS011;53304;54.550;18.526;2024-01-30T10:26:25;19.17;;;10.13;;
66487;SDS011;53304;54.550;18.526;2024-01-30T10:28:51;20.80;;;10.23;;
66487;SDS011;53304;54.550;18.526;2024-01-30T10:31:19;20.92;;;9.18;;
66487;SDS011;53304;54.550;18.526;2024-01-30T10:33:46;22.02;;;10.02;;
66487;SDS011;53304;54.550;18.526;2024-01-30T10:36:14;20.38;;;10.63;;
66487;SDS011;53304;54.550;18.526;2024-01-30T10:38:42;20.77;;;9.80;;
66487;SDS011;53304;54.550;18.526;2024-01-30T10:41:24;20.63;;;9.35;;
66487;SDS011;53304;54.550;18.526;2024-01-30T10:44:09;23.58;;;10.07;;
66487;SDS011;53304;54.550;18.526;2024-01-30T10:46:35;18.33;;;9.43;;
66487;SDS011;53304;54.550;18.526;2024-01-30T10:49:03;22.55;;;8.77;;
66487;SDS011;53304;54.550;18.526;2024-01-30T10:51:34;20.33;;;9.30;;
66487;SDS011;53304;54.550;18.526;2024-01-30T10:54:02;19.33;;;9.70;;
66487;SDS011;53304;54.550;18.526;2024-01-30T10:56:28;19.20;;;9.07;;
66487;SDS011;53304;54.550;18.526;2024-01-30T10:58:54;20.92;;;9.68;;
66487;SDS011;53304;54.550;18.526;2024-01-30T11:01:25;17.67;;;8.52;;
66487;SDS011;53304;54.550;18.526;2024-01-30T11:03:54;18.95;;;9.10;;
66487;SDS011;53304;54.550;18.526;2024-01-30T11:06:24;16.98;;;8.93;;
66487;SDS011;53304;54.550;18.526;2024-01-30T11:09:00;17.95;;;8.15;;
66487;SDS011;53304;54.550;18.526;2024-01-30T11:11:50;20.73;;;8.82;;
66487;SDS011;53304;54.550;18.526;2024-01-30T11:14:31;18.90;;;8.45;;
66487;SDS011;53304;54.550;18.526;2024-01-30T11:16:59;17.55;;;8.45;;
66487;SDS011;53304;54.550;18.526;2024-01-30T11:19:30;18.92;;;8.68;;
66487;SDS011;53304;54.550;18.526;2024-01-30T11:22:01;17.20;;;8.90;;
66487;SDS011;53304;54.550;18.526;2024-01-30T11:24:27;20.73;;;8.80;;
66487;SDS011;53304;54.550;18.526;2024-01-30T11:26:55;16.42;;;8.05;;
66487;SDS011;53304;54.550;18.526;2024-01-30T11:29:28;16.50;;;8.20;;
66487;SDS011;53304;54.550;18.526;2024-01-30T11:31:59;16.50;;;8.38;;
66487;SDS011;53304;54.550;18.526;2024-01-30T11:34:30;16.40;;;8.15;;
66487;SDS011;53304;54.550;18.526;2024-01-30T11:36:59;15.95;;;8.50;;
66487;SDS011;53304;54.550;18.526;2024-01-30T11:39:31;15.02;;;7.78;;
66487;SDS011;53304;54.550;18.526;2024-01-30T11:41:59;17.27;;;8.73;;
66487;SDS011;53304;54.550;18.526;2024-01-30T11:44:25;14.50;;;8.45;;
66487;SDS011;53304;54.550;18.526;2024-01-30T11:46:55;16.08;;;8.27;;
66487;SDS011;53304;54.550;18.526;2024-01-30T11:49:23;16.13;;;7.93;;
66487;SDS011;53304;54.550;18.526;2024-01-30T11:51:51;16.08;;;8.55;;
66487;SDS011;53304;54.550;18.526;2024-01-30T11:54:20;22.98;;;13.00;;
66487;SDS011;53304;54.550;18.526;2024-01-30T11:56:46;35.05;;;18.00;;
66487;SDS011;53304;54.550;18.526;2024-01-30T11:59:11;32.10;;;19.25;;
66487;SDS011;53304;54.550;18.526;2024-01-30T12:01:37;31.83;;;16.70;;
66487;SDS011;53304;54.550;18.526;2024-01-30T12:04:05;39.78;;;20.85;;
66487;SDS011;53304;54.550;18.526;2024-01-30T12:06:34;42.80;;;22.38;;
66487;SDS011;53304;54.550;18.526;2024-01-30T12:09:00;46.05;;;23.88;;
66487;SDS011;53304;54.550;18.526;2024-01-30T12:11:29;47.45;;;24.45;;
66487;SDS011;53304;54.550;18.526;2024-01-30T12:13:59;46.08;;;25.15;;
66487;SDS011;53304;54.550;18.526;2024-01-30T12:16:25;42.50;;;24.40;;
66487;SDS011;53304;54.550;18.526;2024-01-30T12:18:58;41.10;;;23.65;;
66487;SDS011;53304;54.550;18.526;2024-01-30T12:21:24;43.30;;;24.35;;
66487;SDS011;53304;54.550;18.526;2024-01-30T12:23:50;47.92;;;24.40;;
66487;SDS011;53304;54.550;18.526;2024-01-30T12:26:16;43.00;;;23.70;;
66487;SDS011;53304;54.550;18.526;2024-01-30T12:28:48;41.05;;;22.58;;
66487;SDS011;53304;54.550;18.526;2024-01-30T12:31:17;39.88;;;22.67;;
66487;SDS011;53304;54.550;18.526;2024-01-30T12:33:52;43.58;;;23.10;;
66487;SDS011;53304;54.550;18.526;2024-01-30T12:36:17;43.80;;;23.02;;
66487;SDS011;53304;54.550;18.526;2024-01-30T12:38:43;37.28;;;20.83;;
66487;SDS011;53304;54.550;18.526;2024-01-30T12:41:08;38.40;;;21.27;;
66487;SDS011;53304;54.550;18.526;2024-01-30T12:43:38;40.38;;;21.58;;
66487;SDS011;53304;54.550;18.526;2024-01-30T12:46:06;42.13;;;22.52;;
66487;SDS011;53304;54.550;18.526;2024-01-30T12:48:37;37.72;;;20.70;;
66487;SDS011;53304;54.550;18.526;2024-01-30T12:51:11;32.17;;;18.70;;
66487;SDS011;53304;54.550;18.526;2024-01-30T12:53:37;34.17;;;20.20;;
66487;SDS011;53304;54.550;18.526;2024-01-30T12:56:05;36.28;;;19.77;;
66487;SDS011;53304;54.550;18.526;2024-01-30T12:58:35;33.65;;;18.83;;
66487;SDS011;53304;54.550;18.526;2024-01-30T13:01:03;33.72;;;19.27;;
66487;SDS011;53304;54.550;18.526;2024-01-30T13:03:30;33.83;;;18.58;;
66487;SDS011;53304;54.550;18.526;2024-01-30T13:06:01;35.50;;;19.77;;
66487;SDS011;53304;54.550;18.526;2024-01-30T13:08:26;30.15;;;18.05;;
66487;SDS011;53304;54.550;18.526;2024-01-30T13:10:54;33.67;;;18.45;;
66487;SDS011;53304;54.550;18.526;2024-01-30T13:13:19;31.70;;;18.25;;
66487;SDS011;53304;54.550;18.526;2024-01-30T13:15:45;32.58;;;18.52;;
66487;SDS011;53304;54.550;18.526;2024-01-30T13:18:15;32.75;;;17.60;;
66487;SDS011;53304;54.550;18.526;2024-01-30T13:20:43;32.55;;;17.73;;
66487;SDS011;53304;54.550;18.526;2024-01-30T13:23:08;32.22;;;17.17;;
66487;SDS011;53304;54.550;18.526;2024-01-30T13:25:33;32.33;;;15.82;;
66487;SDS011;53304;54.550;18.526;2024-01-30T13:28:01;27.65;;;16.02;;
66487;SDS011;53304;54.550;18.526;2024-01-30T13:30:26;30.20;;;16.77;;
66487;SDS011;53304;54.550;18.526;2024-01-30T13:32:57;28.52;;;15.57;;
66487;SDS011;53304;54.550;18.526;2024-01-30T13:35:25;28.52;;;15.93;;
66487;SDS011;53304;54.550;18.526;2024-01-30T13:37:50;26.95;;;15.80;;
66487;SDS011;53304;54.550;18.526;2024-01-30T13:40:18;25.00;;;16.42;;
66487;SDS011;53304;54.550;18.526;2024-01-30T13:42:46;24.77;;;14.90;;
66487;SDS011;53304;54.550;18.526;2024-01-30T13:45:11;26.92;;;15.73;;
66487;SDS011;53304;54.550;18.526;2024-01-30T13:47:37;26.73;;;15.50;;
66487;SDS011;53304;54.550;18.526;2024-01-30T13:50:02;22.88;;;14.70;;
66487;SDS011;53304;54.550;18.526;2024-01-30T13:52:28;26.25;;;15.30;;
66487;SDS011;53304;54.550;18.526;2024-01-30T13:54:53;23.52;;;14.07;;
66487;SDS011;53304;54.550;18.526;2024-01-30T13:57:21;26.92;;;15.00;;
66487;SDS011;53304;54.550;18.526;2024-01-30T13:59:49;26.73;;;14.07;;
66487;SDS011;53304;54.550;18.526;2024-01-30T14:02:16;25.58;;;13.85;;
66487;SDS011;53304;54.550;18.526;2024-01-30T14:04:45;22.27;;;13.57;;
66487;SDS011;53304;54.550;18.526;2024-01-30T14:07:13;23.35;;;13.35;;
66487;SDS011;53304;54.550;18.526;2024-01-30T14:09:40;21.52;;;13.45;;
66487;SDS011;53304;54.550;18.526;2024-01-30T14:12:08;22.98;;;13.68;;
66487;SDS011;53304;54.550;18.526;2024-01-30T14:14:34;22.70;;;13.30;;
66487;SDS011;53304;54.550;18.526;2024-01-30T14:16:59;23.58;;;13.45;;
66487;SDS011;53304;54.550;18.526;2024-01-30T14:19:24;27.33;;;14.63;;
66487;SDS011;53304;54.550;18.526;2024-01-30T14:21:52;23.05;;;13.23;;
66487;SDS011;53304;54.550;18.526;2024-01-30T14:24:18;24.13;;;13.82;;
66487;SDS011;53304;54.550;18.526;2024-01-30T14:26:43;24.52;;;14.15;;
66487;SDS011;53304;54.550;18.526;2024-01-30T14:29:09;23.98;;;13.07;;
66487;SDS011;53304;54.550;18.526;2024-01-30T14:31:37;21.83;;;13.00;;
66487;SDS011;53304;54.550;18.526;2024-01-30T14:34:02;21.15;;;12.88;;
66487;SDS011;53304;54.550;18.526;2024-01-30T14:36:27;21.52;;;12.85;;
66487;SDS011;53304;54.550;18.526;2024-01-30T14:38:54;20.85;;;12.57;;
66487;SDS011;53304;54.550;18.526;2024-01-30T14:41:20;20.05;;;12.73;;
66487;SDS011;53304;54.550;18.526;2024-01-30T14:43:45;20.17;;;12.38;;
66487;SDS011;53304;54.550;18.526;2024-01-30T14:46:13;20.45;;;12.65;;
66487;SDS011;53304;54.550;18.526;2024-01-30T14:48:41;22.27;;;13.25;;
66487;SDS011;53304;54.550;18.526;2024-01-30T14:51:12;21.80;;;12.65;;
66487;SDS011;53304;54.550;18.526;2024-01-30T14:53:37;28.98;;;14.57;;
66487;SDS011;53304;54.550;18.526;2024-01-30T14:56:03;28.48;;;13.65;;
66487;SDS011;53304;54.550;18.526;2024-01-30T14:58:28;31.15;;;15.40;;
66487;SDS011;53304;54.550;18.526;2024-01-30T15:00:54;41.05;;;18.02;;
66487;SDS011;53304;54.550;18.526;2024-01-30T15:03:19;51.58;;;18.98;;
66487;SDS011;53304;54.550;18.526;2024-01-30T15:05:44;55.90;;;21.25;;
66487;SDS011;53304;54.550;18.526;2024-01-30T15:08:13;66.30;;;24.02;;
66487;SDS011;53304;54.550;18.526;2024-01-30T15:10:38;68.35;;;25.05;;
66487;SDS011;53304;54.550;18.526;2024-01-30T15:13:03;71.57;;;26.05;;
66487;SDS011;53304;54.550;18.526;2024-01-30T15:15:29;68.57;;;26.27;;
66487;SDS011;53304;54.550;18.526;2024-01-30T15:17:58;61.25;;;23.52;;
66487;SDS011;53304;54.550;18.526;2024-01-30T15:20:26;61.78;;;25.25;;
66487;SDS011;53304;54.550;18.526;2024-01-30T15:22:51;57.13;;;23.63;;
66487;SDS011;53304;54.550;18.526;2024-01-30T15:25:19;62.97;;;24.40;;
66487;SDS011;53304;54.550;18.526;2024-01-30T15:27:47;66.15;;;24.27;;
66487;SDS011;53304;54.550;18.526;2024-01-30T15:30:12;67.63;;;25.67;;
66487;SDS011;53304;54.550;18.526;2024-01-30T15:32:38;71.32;;;25.00;;
66487;SDS011;53304;54.550;18.526;2024-01-30T15:35:06;60.42;;;24.15;;
66487;SDS011;53304;54.550;18.526;2024-01-30T15:37:33;64.78;;;24.35;;
66487;SDS011;53304;54.550;18.526;2024-01-30T15:39:58;68.03;;;24.00;;
66487;SDS011;53304;54.550;18.526;2024-01-30T15:42:26;59.63;;;24.33;;
66487;SDS011;53304;54.550;18.526;2024-01-30T15:44:51;61.22;;;22.95;;
66487;SDS011;53304;54.550;18.526;2024-01-30T15:47:19;52.15;;;22.05;;
66487;SDS011;53304;54.550;18.526;2024-01-30T15:49:45;54.42;;;21.33;;
66487;SDS011;53304;54.550;18.526;2024-01-30T15:52:10;54.42;;;20.42;;
66487;SDS011;53304;54.550;18.526;2024-01-30T15:54:39;56.17;;;20.42;;
66487;SDS011;53304;54.550;18.526;2024-01-30T15:57:07;53.35;;;18.88;;
66487;SDS011;53304;54.550;18.526;2024-01-30T15:59:36;51.17;;;20.48;;
66487;SDS011;53304;54.550;18.526;2024-01-30T16:02:01;52.20;;;20.85;;
66487;SDS011;53304;54.550;18.526;2024-01-30T16:04:32;49.75;;;19.13;;
66487;SDS011;53304;54.550;18.526;2024-01-30T16:07:00;49.42;;;19.25;;
66487;SDS011;53304;54.550;18.526;2024-01-30T16:09:25;47.38;;;19.33;;
66487;SDS011;53304;54.550;18.526;2024-01-30T16:11:51;46.33;;;18.40;;
66487;SDS011;53304;54.550;18.526;2024-01-30T16:14:16;54.17;;;19.95;;
66487;SDS011;53304;54.550;18.526;2024-01-30T16:16:41;53.83;;;20.30;;
66487;SDS011;53304;54.550;18.526;2024-01-30T16:19:07;46.15;;;18.75;;
66487;SDS011;53304;54.550;18.526;2024-01-30T16:21:35;47.42;;;18.67;;
66487;SDS011;53304;54.550;18.526;2024-01-30T16:24:00;46.25;;;18.95;;
66487;SDS011;53304;54.550;18.526;2024-01-30T16:26:26;45.65;;;17.13;;
66487;SDS011;53304;54.550;18.526;2024-01-30T16:28:51;40.40;;;17.85;;
66487;SDS011;53304;54.550;18.526;2024-01-30T16:31:19;44.13;;;17.52;;
66487;SDS011;53304;54.550;18.526;2024-01-30T16:33:48;37.22;;;16.40;;
66487;SDS011;53304;54.550;18.526;2024-01-30T16:36:16;42.65;;;16.60;;
66487;SDS011;53304;54.550;18.526;2024-01-30T16:38:44;41.00;;;16.08;;
66487;SDS011;53304;54.550;18.526;2024-01-30T16:41:12;35.75;;;16.33;;
66487;SDS011;53304;54.550;18.526;2024-01-30T16:43:37;37.40;;;16.65;;
66487;SDS011;53304;54.550;18.526;2024-01-30T16:46:07;35.80;;;16.02;;
66487;SDS011;53304;54.550;18.526;2024-01-30T16:48:33;33.85;;;16.05;;
66487;SDS011;53304;54.550;18.526;2024-01-30T16:50:59;32.83;;;15.15;;
66487;SDS011;53304;54.550;18.526;2024-01-30T16:53:24;36.47;;;15.68;;
66487;SDS011;53304;54.550;18.526;2024-01-30T16:55:52;32.03;;;14.55;;
66487;SDS011;53304;54.550;18.526;2024-01-30T16:58:17;29.73;;;14.27;;
66487;SDS011;53304;54.550;18.526;2024-01-30T17:00:45;33.17;;;15.48;;
66487;SDS011;53304;54.550;18.526;2024-01-30T17:03:11;30.65;;;13.93;;
66487;SDS011;53304;54.550;18.526;2024-01-30T17:05:38;31.33;;;13.95;;
66487;SDS011;53304;54.550;18.526;2024-01-30T17:08:06;33.53;;;14.55;;
66487;SDS011;53304;54.550;18.526;2024-01-30T17:10:32;36.40;;;14.35;;
66487;SDS011;53304;54.550;18.526;2024-01-30T17:12:59;29.33;;;13.85;;
66487;SDS011;53304;54.550;18.526;2024-01-30T17:15:25;31.83;;;14.25;;
66487;SDS011;53304;54.550;18.526;2024-01-30T17:17:53;29.50;;;13.25;;
66487;SDS011;53304;54.550;18.526;2024-01-30T17:20:21;30.63;;;13.43;;
66487;SDS011;53304;54.550;18.526;2024-01-30T17:22:47;26.98;;;13.00;;
66487;SDS011;53304;54.550;18.526;2024-01-30T17:25:13;26.13;;;12.48;;
66487;SDS011;53304;54.550;18.526;2024-01-30T17:27:38;31.92;;;13.38;;
66487;SDS011;53304;54.550;18.526;2024-01-30T17:30:06;26.58;;;13.10;;
66487;SDS011;53304;54.550;18.526;2024-01-30T17:32:32;25.65;;;12.68;;
66487;SDS011;53304;54.550;18.526;2024-01-30T17:34:57;26.50;;;12.18;;
66487;SDS011;53304;54.550;18.526;2024-01-30T17:37:27;30.73;;;12.65;;
66487;SDS011;53304;54.550;18.526;2024-01-30T17:39:53;25.20;;;12.70;;
66487;SDS011;53304;54.550;18.526;2024-01-30T17:42:20;26.33;;;13.10;;
66487;SDS011;53304;54.550;18.526;2024-01-30T17:44:47;26.05;;;12.00;;
66487;SDS011;53304;54.550;18.526;2024-01-30T17:47:12;25.17;;;11.85;;
66487;SDS011;53304;54.550;18.526;2024-01-30T17:49:37;23.00;;;11.80;;
66487;SDS011;53304;54.550;18.526;2024-01-30T17:52:04;23.05;;;11.77;;
66487;SDS011;53304;54.550;18.526;2024-01-30T17:54:31;25.45;;;12.48;;
66487;SDS011;53304;54.550;18.526;2024-01-30T17:56:56;21.67;;;10.88;;
66487;SDS011;53304;54.550;18.526;2024-01-30T17:59:24;22.83;;;11.27;;
66487;SDS011;53304;54.550;18.526;2024-01-30T18:01:52;21.90;;;11.52;;